Time;durP1;ratioP1;P1;durP2;ratioP2;P2;SDS_P1;SDS_P2;PMS_P1;PMS_P2;Temp;Humidity;BMP_temperature;BMP_pressure;BME280_temperature;BME280_humidity;BME280_pressure;Samples;Min_cycle;Max_cycle;Signal;HPM_P1;HPM_P2
2021/03/10 00:02:10;;;;;;;20.70;13.98;;;;;;;-3.80;63.19;96194.88;5027474;28;20060;-54
2021/03/10 00:04:37;;;;;;;26.35;17.98;;;;;;;-3.82;63.27;96191.66;5023790;28;20050;-55
2021/03/10 00:07:04;;;;;;;26.35;17.27;;;;;;;-3.83;63.64;96199.56;5024231;28;20045;-55
2021/03/10 00:09:31;;;;;;;29.55;17.83;;;;;;;-3.93;63.83;96194.53;5022275;28;20053;-54
2021/03/10 00:11:59;;;;;;;32.75;19.05;;;;;;;-3.92;64.09;96206.44;5026652;28;20049;-54
2021/03/10 00:14:26;;;;;;;30.52;18.52;;;;;;;-3.92;64.22;96203.88;5002641;28;20065;-54
2021/03/10 00:16:53;;;;;;;34.10;18.58;;;;;;;-3.95;64.71;96201.59;5029480;28;20050;-55
2021/03/10 00:19:21;;;;;;;32.90;20.83;;;;;;;-3.99;64.28;96200.28;5026117;28;20044;-54
2021/03/10 00:21:49;;;;;;;38.35;20.70;;;;;;;-4.02;64.35;96198.84;5012281;28;20060;-54
2021/03/10 00:24:17;;;;;;;29.83;18.73;;;;;;;-4.06;64.60;96198.34;4967834;28;20056;-55
2021/03/10 00:26:45;;;;;;;34.92;20.17;;;;;;;-4.07;64.49;96189.00;5013958;28;20044;-55
2021/03/10 00:29:12;;;;;;;31.60;21.40;;;;;;;-4.16;64.63;96189.97;5010239;28;20242;-54
2021/03/10 00:31:39;;;;;;;37.22;21.67;;;;;;;-4.19;64.67;96198.00;5034233;28;20045;-55
2021/03/10 00:34:06;;;;;;;33.85;19.77;;;;;;;-4.22;65.13;96198.28;5031859;28;20501;-54
2021/03/10 00:36:33;;;;;;;39.95;23.92;;;;;;;-4.31;64.95;96197.47;5035281;28;20087;-54
2021/03/10 00:39:01;;;;;;;34.88;23.00;;;;;;;-4.39;65.45;96190.53;5025004;28;20500;-54
2021/03/10 00:41:29;;;;;;;35.67;20.02;;;;;;;-4.42;65.69;96193.41;5027852;28;20045;-54
2021/03/10 00:43:56;;;;;;;35.75;21.17;;;;;;;-4.42;65.67;96192.56;5031567;28;20055;-55
2021/03/10 00:46:24;;;;;;;33.65;19.27;;;;;;;-4.41;65.67;96186.47;5036483;28;20064;-59
2021/03/10 00:48:51;;;;;;;31.00;20.23;;;;;;;-4.44;65.55;96190.16;5032936;28;20064;-57
2021/03/10 00:51:18;;;;;;;31.83;19.35;;;;;;;-4.42;65.61;96197.72;5009165;28;20041;-54
2021/03/10 00:53:46;;;;;;;33.55;18.95;;;;;;;-4.47;65.89;96180.16;4979911;28;20053;-55
2021/03/10 00:56:13;;;;;;;32.50;19.30;;;;;;;-4.42;66.02;96188.25;5031936;28;20060;-54
2021/03/10 00:58:40;;;;;;;32.15;19.42;;;;;;;-4.41;65.94;96183.88;5038255;28;20056;-54
2021/03/10 01:01:09;;;;;;;34.75;22.17;;;;;;;-4.41;65.88;96174.41;5027414;28;20682;-55
2021/03/10 01:03:36;;;;;;;27.92;17.10;;;;;;;-4.42;66.19;96180.53;5013118;28;20250;-54
2021/03/10 01:06:03;;;;;;;27.00;17.98;;;;;;;-4.46;66.12;96186.94;5032767;28;20204;-62
2021/03/10 01:08:31;;;;;;;36.78;18.42;;;;;;;-4.57;66.71;96184.63;5021374;28;20053;-55
2021/03/10 01:10:58;;;;;;;27.85;17.58;;;;;;;-4.64;67.09;96180.09;5008532;28;20252;-54
2021/03/10 01:13:25;;;;;;;31.27;17.55;;;;;;;-4.63;67.22;96186.88;5027224;28;20049;-54
2021/03/10 01:15:53;;;;;;;23.50;15.38;;;;;;;-4.61;66.92;96183.31;5016668;28;20052;-55
2021/03/10 01:18:20;;;;;;;27.02;16.20;;;;;;;-4.57;66.50;96184.63;5028324;28;20052;-55
2021/03/10 01:20:47;;;;;;;31.38;17.27;;;;;;;-4.55;66.73;96172.41;5026686;28;20409;-54
2021/03/10 01:23:16;;;;;;;28.88;16.58;;;;;;;-4.51;67.11;96176.31;4999321;28;20045;-54
2021/03/10 01:25:43;;;;;;;31.85;20.55;;;;;;;-4.54;67.41;96172.25;5017348;28;20297;-54
2021/03/10 01:28:11;;;;;;;33.90;18.10;;;;;;;-4.55;67.22;96177.56;5011337;28;21226;-54
2021/03/10 01:30:38;;;;;;;28.08;18.55;;;;;;;-4.54;67.06;96171.47;5016641;28;20594;-54
2021/03/10 01:33:05;;;;;;;28.08;16.95;;;;;;;-4.56;67.03;96171.63;4997118;28;20045;-55
2021/03/10 01:35:33;;;;;;;30.23;17.67;;;;;;;-4.55;66.94;96160.34;5029032;28;20045;-55
2021/03/10 01:38:00;;;;;;;26.75;18.33;;;;;;;-4.52;66.82;96166.97;5021327;28;20497;-54
2021/03/10 01:40:28;;;;;;;30.92;20.35;;;;;;;-4.59;66.85;96156.47;4982754;28;20057;-55
2021/03/10 01:43:06;;;;;;;30.15;18.05;;;;;;;-4.63;67.56;96158.56;5029090;28;20046;-55
2021/03/10 01:45:36;;;;;;;30.33;18.02;;;;;;;-4.65;67.39;96163.03;5001890;28;20079;-55
2021/03/10 01:48:09;;;;;;;31.77;17.40;;;;;;;-4.69;68.01;96150.66;4998450;28;20068;-54
2021/03/10 01:50:37;;;;;;;27.13;18.05;;;;;;;-4.67;67.89;96154.66;5018418;28;20060;-58
2021/03/10 01:53:04;;;;;;;28.92;18.17;;;;;;;-4.65;67.71;96155.31;5010408;28;20045;-55
2021/03/10 01:55:32;;;;;;;36.60;18.90;;;;;;;-4.66;68.19;96151.13;5026467;28;20459;-55
2021/03/10 01:58:01;;;;;;;34.95;20.25;;;;;;;-4.66;68.62;96150.31;5024740;28;20069;-54
2021/03/10 02:00:29;;;;;;;30.42;19.38;;;;;;;-4.65;68.37;96151.94;4996805;28;20640;-55
2021/03/10 02:02:56;;;;;;;32.55;20.20;;;;;;;-4.57;67.79;96146.00;5013407;28;20045;-55
2021/03/10 02:05:25;;;;;;;34.00;20.88;;;;;;;-4.55;67.82;96136.38;4994950;28;20071;-54
2021/03/10 02:08:23;;;;;;;30.08;18.25;;;;;;;-4.64;67.79;96123.47;5033199;28;20056;-55
2021/03/10 02:11:06;;;;;;;30.77;19.50;;;;;;;-4.59;67.77;96143.59;5017349;28;20063;-55
2021/03/10 02:14:04;;;;;;;31.65;18.63;;;;;;;-4.63;67.80;96143.13;4980835;28;20068;-57
2021/03/10 02:16:50;;;;;;;34.40;20.23;;;;;;;-4.63;67.56;96140.53;5024044;28;20049;-54
2021/03/10 02:19:50;;;;;;;32.08;21.92;;;;;;;-4.68;67.79;96140.19;4996889;28;20228;-54
2021/03/10 02:23:05;;;;;;;37.17;21.75;;;;;;;-4.75;68.15;96138.38;5028192;28;20497;-55
2021/03/10 02:25:56;;;;;;;37.85;21.42;;;;;;;-4.80;68.56;96138.84;5031257;28;20055;-54
2021/03/10 02:28:25;;;;;;;33.17;19.95;;;;;;;-4.88;68.51;96144.75;4998025;28;20064;-54
2021/03/10 02:30:53;;;;;;;39.33;23.63;;;;;;;-4.94;68.79;96146.16;5023725;28;20054;-54
2021/03/10 02:33:24;;;;;;;36.88;21.40;;;;;;;-4.97;68.58;96143.09;5022857;28;20441;-55
2021/03/10 02:36:07;;;;;;;34.47;19.48;;;;;;;-5.04;68.58;96142.91;5028772;28;20061;-55
2021/03/10 02:38:38;;;;;;;25.27;16.83;;;;;;;-5.08;68.67;96138.22;5005489;28;20041;-56
2021/03/10 02:41:07;;;;;;;30.25;18.25;;;;;;;-5.15;68.38;96149.09;5012775;28;20044;-55
2021/03/10 02:43:35;;;;;;;29.17;17.75;;;;;;;-5.21;69.12;96144.56;5012046;28;20053;-54
2021/03/10 02:46:04;;;;;;;30.38;17.42;;;;;;;-5.26;68.76;96150.16;5028105;28;20068;-54
2021/03/10 02:48:33;;;;;;;32.80;20.45;;;;;;;-5.27;68.72;96151.13;5031456;28;20887;-56
2021/03/10 02:51:01;;;;;;;29.50;19.65;;;;;;;-5.33;69.13;96153.47;5011666;28;20044;-54
2021/03/10 02:53:31;;;;;;;30.10;18.08;;;;;;;-5.37;69.07;96152.97;5014259;28;20064;-55
2021/03/10 02:55:58;;;;;;;28.02;18.45;;;;;;;-5.43;69.04;96151.81;5026695;28;20063;-55
2021/03/10 02:58:26;;;;;;;31.52;18.13;;;;;;;-5.51;69.35;96146.59;5011280;28;20057;-55
2021/03/10 03:00:54;;;;;;;28.05;17.60;;;;;;;-5.57;69.24;96150.56;5019427;28;20151;-55
2021/03/10 03:03:21;;;;;;;28.83;18.55;;;;;;;-5.65;70.14;96150.50;5026644;28;20421;-55
2021/03/10 03:05:49;;;;;;;31.30;18.88;;;;;;;-5.67;70.30;96151.63;5013211;28;20425;-60
2021/03/10 03:08:17;;;;;;;29.25;18.58;;;;;;;-5.71;70.53;96151.91;5012880;28;21313;-56
2021/03/10 03:10:45;;;;;;;32.03;18.65;;;;;;;-5.73;70.24;96153.81;5010523;28;20040;-55
2021/03/10 03:13:17;;;;;;;28.42;18.33;;;;;;;-5.74;70.18;96153.97;5023959;28;20037;-54
2021/03/10 03:15:53;;;;;;;31.25;18.85;;;;;;;-5.75;70.52;96160.06;5025930;28;20052;-55
2021/03/10 03:18:21;;;;;;;;;;;;;;;-5.82;70.07;96149.56;5007017;28;20052;-54
2021/03/10 03:20:52;;;;;;;32.30;17.48;;;;;;;-5.83;70.40;96154.81;5002140;28;19948;-55
2021/03/10 03:23:21;;;;;;;36.47;20.08;;;;;;;-5.84;70.92;96151.47;4992316;28;20041;-53
2021/03/10 03:25:49;;;;;;;33.63;20.40;;;;;;;-5.83;70.43;96152.25;5028498;28;20067;-55
2021/03/10 03:28:20;;;;;;;28.05;18.38;;;;;;;-5.88;70.86;96150.97;5023753;28;20048;-55
2021/03/10 03:30:49;;;;;;;33.78;19.75;;;;;;;-5.94;71.00;96151.53;5012317;28;20048;-55
2021/03/10 03:33:21;;;;;;;44.40;22.08;;;;;;;-5.93;71.57;96154.91;5006019;28;20057;-54
2021/03/10 03:35:52;;;;;;;41.72;23.65;;;;;;;-5.93;71.56;96152.34;5016355;28;20067;-54
2021/03/10 03:38:21;;;;;;;32.63;21.50;;;;;;;-5.97;71.90;96156.97;4980240;28;20045;-56
2021/03/10 03:40:50;;;;;;;32.28;19.17;;;;;;;-5.96;71.52;96165.47;5028091;28;20057;-55
2021/03/10 03:43:19;;;;;;;29.90;18.88;;;;;;;-5.99;71.06;96155.50;5027047;28;20049;-55
2021/03/10 03:45:47;;;;;;;28.13;18.08;;;;;;;-6.02;71.00;96160.00;5027715;28;20136;-55
2021/03/10 03:48:17;;;;;;;29.90;18.27;;;;;;;-6.03;71.75;96160.94;5012014;28;20051;-55
2021/03/10 03:50:45;;;;;;;33.67;18.88;;;;;;;-6.05;71.27;96160.31;4996961;28;20417;-55
2021/03/10 03:53:13;;;;;;;39.38;21.80;;;;;;;-6.05;71.56;96159.47;5026247;28;20041;-57
2021/03/10 03:55:42;;;;;;;28.17;17.92;;;;;;;-6.06;71.49;96157.84;5024568;28;20056;-54
2021/03/10 03:58:10;;;;;;;27.85;18.45;;;;;;;-6.15;71.46;96159.53;5021640;28;20056;-54
2021/03/10 04:00:37;;;;;;;31.80;18.23;;;;;;;-6.19;71.63;96165.94;5022483;28;20672;-55
2021/03/10 04:03:04;;;;;;;30.15;18.08;;;;;;;-6.21;71.49;96166.06;4991800;28;20045;-55
2021/03/10 04:05:32;;;;;;;32.63;19.05;;;;;;;-6.19;71.84;96161.59;5024917;28;20498;-59
2021/03/10 04:08:09;;;;;;;34.03;18.67;;;;;;;-6.22;72.27;96159.31;5026231;28;21273;-55
2021/03/10 04:10:39;;;;;;;29.95;18.63;;;;;;;-6.21;72.08;96160.91;5004276;28;20602;-55
2021/03/10 04:13:07;;;;;;;32.70;20.58;;;;;;;-6.16;72.27;96159.69;5013709;28;20638;-55
2021/03/10 04:15:35;;;;;;;34.63;19.40;;;;;;;-6.16;72.33;96159.69;5031514;28;20058;-55
2021/03/10 04:18:03;;;;;;;33.30;18.30;;;;;;;-6.12;72.56;96159.25;5028776;28;20058;-55
2021/03/10 04:20:34;;;;;;;32.88;19.42;;;;;;;-6.14;72.11;96152.66;4980442;28;20061;-55
2021/03/10 04:23:01;;;;;;;36.10;19.92;;;;;;;-6.10;72.09;96162.47;5022403;28;20548;-55
2021/03/10 04:25:28;;;;;;;32.75;20.33;;;;;;;-6.06;71.93;96166.38;5011055;28;20045;-55
2021/03/10 04:27:57;;;;;;;32.28;19.05;;;;;;;-6.09;73.07;96158.97;5026107;28;20045;-54
2021/03/10 04:30:24;;;;;;;39.58;21.95;;;;;;;-6.11;72.72;96162.63;5000124;28;20056;-55
2021/03/10 04:32:51;;;;;;;32.00;19.10;;;;;;;-6.10;72.84;96161.69;5025421;28;20049;-54
2021/03/10 04:35:21;;;;;;;31.52;20.55;;;;;;;-6.09;72.67;96163.31;5027898;28;20065;-59
2021/03/10 04:37:49;;;;;;;33.08;20.00;;;;;;;-6.04;72.36;96167.06;5027344;28;20050;-58
2021/03/10 04:40:17;;;;;;;38.55;20.65;;;;;;;-5.99;72.68;96158.88;5014168;28;20061;-54
2021/03/10 04:42:45;;;;;;;39.88;22.17;;;;;;;-6.00;72.93;96162.44;4993992;28;20053;-54
2021/03/10 04:45:14;;;;;;;38.72;21.05;;;;;;;-5.99;72.69;96155.50;5012092;28;20053;-54
2021/03/10 04:47:46;;;;;;;34.15;18.70;;;;;;;-5.94;72.43;96155.88;5038347;28;20049;-56
2021/03/10 04:50:15;;;;;;;35.25;19.50;;;;;;;-5.94;72.58;96155.88;5045913;28;20061;-54
2021/03/10 04:52:43;;;;;;;36.15;20.52;;;;;;;-5.91;72.14;96153.00;5016498;28;20045;-54
2021/03/10 04:55:11;;;;;;;38.20;20.85;;;;;;;-5.90;72.18;96158.00;5040076;28;20048;-54
2021/03/10 04:57:39;;;;;;;34.95;21.27;;;;;;;-5.89;71.75;96162.19;5038786;28;20061;-55
2021/03/10 05:00:11;;;;;;;36.67;21.77;;;;;;;-5.93;71.87;96153.13;5010591;28;20481;-59
2021/03/10 05:02:38;;;;;;;35.88;21.00;;;;;;;-5.88;71.94;96152.69;5026982;28;20052;-56
2021/03/10 05:05:08;;;;;;;36.03;22.13;;;;;;;-5.85;71.82;96154.19;5026807;28;20328;-57
2021/03/10 05:07:37;;;;;;;39.83;23.05;;;;;;;-5.95;71.77;96155.03;5029676;28;20483;-58
2021/03/10 05:10:05;;;;;;;38.00;20.67;;;;;;;-5.92;72.05;96157.34;5049484;28;20052;-54
2021/03/10 05:12:33;;;;;;;36.55;21.52;;;;;;;-5.91;71.67;96163.28;5027175;28;20052;-54
2021/03/10 05:15:01;;;;;;;52.55;24.00;;;;;;;-5.90;72.03;96152.84;4994390;28;20060;-54
2021/03/10 05:17:28;;;;;;;37.15;23.50;;;;;;;-5.87;72.04;96155.13;5049335;28;20037;-56
2021/03/10 05:19:57;;;;;;;43.30;24.80;;;;;;;-5.84;71.19;96166.88;5031343;28;20045;-55
2021/03/10 05:22:25;;;;;;;33.20;20.73;;;;;;;-5.82;71.18;96161.59;5012753;28;20192;-56
2021/03/10 05:24:52;;;;;;;41.53;24.75;;;;;;;-5.83;71.42;96158.22;5028319;28;20049;-54
2021/03/10 05:27:20;;;;;;;36.38;21.92;;;;;;;-5.81;71.21;96164.03;5039078;28;20485;-55
2021/03/10 05:29:48;;;;;;;39.67;22.45;;;;;;;-5.87;71.15;96162.84;5010478;28;20061;-58
2021/03/10 05:32:17;;;;;;;44.10;22.67;;;;;;;-5.90;71.16;96167.44;5031069;28;20050;-64
2021/03/10 05:34:45;;;;;;;38.22;21.95;;;;;;;-5.89;71.59;96169.88;5031494;28;20057;-55
2021/03/10 05:37:12;;;;;;;34.80;20.05;;;;;;;-5.87;71.41;96168.00;5030648;28;20060;-56
2021/03/10 05:39:40;;;;;;;43.15;24.42;;;;;;;-5.83;71.65;96171.06;5031180;28;20046;-56
2021/03/10 05:42:07;;;;;;;42.65;25.15;;;;;;;-5.82;71.55;96174.44;5013168;28;20046;-55
2021/03/10 05:44:35;;;;;;;47.75;25.50;;;;;;;-5.83;71.39;96167.66;4990134;28;20053;-55
2021/03/10 05:47:02;;;;;;;40.08;23.55;;;;;;;-5.82;72.03;96177.00;4999139;28;20177;-54
2021/03/10 05:49:33;;;;;;;45.45;23.88;;;;;;;-5.75;72.12;96176.28;5032487;28;20075;-54
2021/03/10 05:52:05;;;;;;;42.13;26.08;;;;;;;-5.65;71.41;96181.34;5022944;28;20506;-55
2021/03/10 05:54:37;;;;;;;49.05;25.63;;;;;;;-5.67;71.85;96190.16;5018664;28;20067;-57
2021/03/10 05:57:07;;;;;;;52.38;25.95;;;;;;;-5.62;71.60;96178.50;4987491;28;20072;-55
2021/03/10 05:59:35;;;;;;;44.13;26.75;;;;;;;-5.58;71.83;96192.63;5024024;28;20723;-55
2021/03/10 06:02:03;;;;;;;48.40;29.25;;;;;;;-5.49;71.46;96193.53;5026118;28;20041;-55
2021/03/10 06:04:43;;;;;;;51.45;28.42;;;;;;;-5.39;71.24;96190.88;5006469;28;20057;-54
2021/03/10 06:07:22;;;;;;;54.17;30.13;;;;;;;-5.30;71.06;96189.97;5014835;28;20060;-56
2021/03/10 06:10:00;;;;;;;49.05;31.08;;;;;;;-5.23;71.23;96190.19;5010491;28;20061;-54
2021/03/10 06:12:42;;;;;;;50.47;27.65;;;;;;;-5.16;70.72;96190.41;5011322;28;20631;-55
2021/03/10 06:15:12;;;;;;;48.13;28.20;;;;;;;-5.07;70.28;96199.78;5030961;28;20060;-55
2021/03/10 06:17:49;;;;;;;49.05;29.30;;;;;;;-4.92;70.09;96194.88;4977200;28;20053;-53
2021/03/10 06:20:28;;;;;;;56.15;31.88;;;;;;;-4.80;70.03;96195.44;5023169;28;20052;-54
2021/03/10 06:22:55;;;;;;;59.13;32.17;;;;;;;-4.70;69.98;96193.56;4999799;28;20057;-58
2021/03/10 06:25:24;;;;;;;69.60;35.75;;;;;;;-4.58;70.39;96199.28;5026880;28;20048;-54
2021/03/10 06:27:57;;;;;;;64.32;36.28;;;;;;;-4.54;70.65;96210.06;5000396;28;20083;-55
2021/03/10 06:30:36;;;;;;;58.90;34.80;;;;;;;-4.37;69.75;96210.97;5005408;28;20049;-54
2021/03/10 06:33:04;;;;;;;57.65;32.47;;;;;;;-4.26;68.69;96217.63;5024253;28;20056;-54
2021/03/10 06:35:33;;;;;;;60.78;33.10;;;;;;;-4.18;68.44;96220.22;4977697;28;20054;-55
2021/03/10 06:38:27;;;;;;;59.78;33.40;;;;;;;-4.11;68.22;96220.41;5018557;28;20056;-54
2021/03/10 06:40:59;;;;;;;55.58;32.53;;;;;;;-3.96;68.08;96229.16;5024868;28;20052;-54
2021/03/10 06:43:35;;;;;;;51.17;30.45;;;;;;;-3.88;67.80;96228.38;4994795;28;20460;-54
2021/03/10 06:46:12;;;;;;;46.58;28.67;;;;;;;-3.84;67.03;96221.94;4976614;28;20420;-54
2021/03/10 06:48:54;;;;;;;58.75;31.45;;;;;;;-3.74;66.68;96232.09;5008661;28;20045;-54
2021/03/10 06:51:22;;;;;;;53.55;33.00;;;;;;;-3.73;66.70;96229.34;5017043;28;20496;-54
2021/03/10 06:53:49;;;;;;;51.17;33.00;;;;;;;-3.72;66.03;96230.19;4988698;28;20049;-57
2021/03/10 06:56:21;;;;;;;60.53;32.55;;;;;;;-3.69;66.16;96229.06;5006760;28;20068;-55
2021/03/10 06:58:58;;;;;;;66.43;34.50;;;;;;;-3.59;66.17;96237.44;5021665;28;20042;-54
2021/03/10 07:01:47;;;;;;;57.22;35.05;;;;;;;-3.52;65.93;96233.28;5003928;28;20049;-55
2021/03/10 07:04:14;;;;;;;57.08;33.65;;;;;;;-3.48;66.13;96231.97;5013476;28;20041;-55
2021/03/10 07:06:42;;;;;;;65.68;35.47;;;;;;;-3.38;66.21;96231.84;4993477;28;20412;-54
2021/03/10 07:09:13;;;;;;;53.83;32.15;;;;;;;-3.27;65.66;96231.53;5023550;28;20049;-54
2021/03/10 07:11:45;;;;;;;61.63;34.28;;;;;;;-3.15;65.17;96237.19;5010179;28;22492;-55
2021/03/10 07:14:13;;;;;;;53.80;33.13;;;;;;;-3.05;65.39;96239.59;5007935;28;20049;-54
2021/03/10 07:16:41;;;;;;;59.53;32.42;;;;;;;-2.95;64.25;96234.25;4981715;28;20050;-54
2021/03/10 07:19:10;;;;;;;63.08;33.70;;;;;;;-2.87;64.17;96231.66;5028795;28;20053;-54
2021/03/10 07:21:51;;;;;;;64.22;37.17;;;;;;;-2.74;63.84;96233.78;4997187;28;20057;-55
2021/03/10 07:24:23;;;;;;;57.70;33.70;;;;;;;-2.67;62.90;96233.91;5015465;28;20053;-55
2021/03/10 07:26:51;;;;;;;55.88;33.03;;;;;;;-2.58;62.87;96232.09;5013167;28;20046;-55
2021/03/10 07:29:19;;;;;;;55.15;30.80;;;;;;;-2.45;62.31;96240.16;5013993;28;20060;-56
2021/03/10 07:31:57;;;;;;;55.75;33.45;;;;;;;-2.30;61.02;96242.06;4998155;28;20053;-57
2021/03/10 07:34:25;;;;;;;57.92;31.38;;;;;;;-2.23;60.60;96243.81;5014506;28;20050;-55
2021/03/10 07:36:53;;;;;;;59.22;33.30;;;;;;;-2.12;60.08;96249.59;5012083;28;20045;-54
2021/03/10 07:39:23;;;;;;;59.95;35.45;;;;;;;-2.12;59.48;96258.16;4992075;28;20053;-55
2021/03/10 07:41:52;;;;;;;49.17;28.90;;;;;;;-2.17;59.98;96256.09;5003646;28;20469;-55
2021/03/10 07:44:24;;;;;;;51.92;31.35;;;;;;;-2.14;60.35;96249.75;5022750;28;20038;-55
2021/03/10 07:47:07;;;;;;;59.45;33.67;;;;;;;-2.12;59.71;96253.00;5009485;28;20160;-55
2021/03/10 07:49:37;;;;;;;61.63;35.30;;;;;;;-2.01;60.20;96256.97;5022447;28;20417;-55
2021/03/10 07:52:08;;;;;;;54.25;35.10;;;;;;;-1.93;59.66;96259.53;5018337;28;20046;-55
2021/03/10 07:54:38;;;;;;;58.05;33.55;;;;;;;-1.89;59.67;96255.63;5019365;28;20049;-55
2021/03/10 07:57:14;;;;;;;55.50;33.15;;;;;;;-1.78;59.26;96258.81;4992729;28;20063;-55
2021/03/10 07:59:58;;;;;;;50.50;29.75;;;;;;;-1.70;58.18;96248.44;5021210;28;20047;-55
2021/03/10 08:02:27;;;;;;;49.55;31.98;;;;;;;-1.58;58.72;96254.84;5019937;28;20060;-55
2021/03/10 08:05:01;;;;;;;52.17;31.80;;;;;;;-1.50;58.48;96248.00;4984466;28;20068;-57
2021/03/10 08:07:33;;;;;;;59.17;31.23;;;;;;;-1.39;58.17;96255.38;4994427;28;20042;-55
2021/03/10 08:10:00;;;;;;;52.65;32.40;;;;;;;-1.33;57.65;96246.13;5009427;28;20057;-56
2021/03/10 08:12:35;;;;;;;48.17;29.65;;;;;;;-1.22;57.00;96247.50;5010888;28;20879;-55
2021/03/10 08:15:07;;;;;;;51.25;27.17;;;;;;;-1.21;56.15;96249.91;5021016;28;20050;-55
2021/03/10 08:17:34;;;;;;;50.17;29.30;;;;;;;-1.16;56.06;96246.78;5023348;28;20452;-56
2021/03/10 08:20:09;;;;;;;37.67;23.30;;;;;;;-1.03;55.25;96247.03;5020311;28;20048;-55
2021/03/10 08:22:36;;;;;;;30.95;18.67;;;;;;;-0.93;53.43;96242.44;4977309;28;20058;-55
2021/03/10 08:25:05;;;;;;;37.47;19.75;;;;;;;-0.84;51.57;96244.94;5007915;28;20045;-55
2021/03/10 08:27:35;;;;;;;31.75;19.23;;;;;;;-0.82;50.96;96250.75;5000965;28;20430;-55
2021/03/10 08:30:06;;;;;;;30.70;18.67;;;;;;;-0.79;49.72;96245.22;5008989;28;20400;-55
2021/03/10 08:32:33;;;;;;;28.75;16.58;;;;;;;-0.71;50.14;96247.75;4999911;28;20045;-56
2021/03/10 08:35:11;;;;;;;27.13;17.95;;;;;;;-0.63;49.32;96247.66;5014503;28;20053;-55
2021/03/10 08:37:41;;;;;;;26.30;16.10;;;;;;;-0.53;48.55;96252.59;4994282;28;20068;-55
2021/03/10 08:40:11;;;;;;;28.08;18.15;;;;;;;-0.42;48.41;96251.34;5011982;28;20072;-55
2021/03/10 08:42:44;;;;;;;22.95;17.17;;;;;;;-0.34;47.41;96247.88;5012342;28;20049;-55
2021/03/10 08:45:34;;;;;;;30.25;18.27;;;;;;;-0.21;47.39;96242.84;5020920;28;20049;-56
2021/03/10 08:48:10;;;;;;;27.35;16.38;;;;;;;-0.09;46.98;96232.84;5014924;28;20045;-55
2021/03/10 08:50:44;;;;;;;29.50;17.65;;;;;;;-0.01;47.29;96243.13;5015197;28;20277;-55
2021/03/10 08:53:14;;;;;;;30.08;19.80;;;;;;;0.09;45.53;96234.25;5008985;28;20050;-54
2021/03/10 08:55:46;;;;;;;31.80;17.30;;;;;;;0.12;45.80;96233.91;5007012;28;20385;-55
2021/03/10 08:58:17;;;;;;;30.33;19.33;;;;;;;0.09;45.13;96229.06;4988031;28;20052;-55
2021/03/10 09:00:51;;;;;;;26.50;17.33;;;;;;;0.08;45.94;96232.63;4978081;28;20062;-55
2021/03/10 09:03:20;;;;;;;26.45;17.27;;;;;;;0.17;46.15;96235.94;4993731;28;20507;-56
2021/03/10 09:05:59;;;;;;;;;;;;;;;0.22;45.23;96233.63;5019032;28;20045;-55
2021/03/10 09:08:27;;;;;;;26.23;17.00;;;;;;;0.14;44.16;96231.94;5003322;28;20577;-55
2021/03/10 09:11:05;;;;;;;22.75;16.08;;;;;;;-0.03;43.44;96237.31;5014633;28;20056;-55
2021/03/10 09:13:46;;;;;;;24.88;15.80;;;;;;;0.05;44.09;96227.84;5013658;28;20048;-55
2021/03/10 09:16:20;;;;;;;24.05;15.52;;;;;;;0.14;43.00;96227.53;4989485;28;20046;-56
2021/03/10 09:19:00;;;;;;;27.55;15.52;;;;;;;0.24;42.57;96227.25;4997361;28;20441;-55
2021/03/10 09:21:40;;;;;;;24.77;16.02;;;;;;;0.30;43.69;96229.13;5019916;28;20168;-56
2021/03/10 09:24:13;;;;;;;29.27;15.68;;;;;;;0.43;44.41;96231.06;5016267;28;20061;-56
2021/03/10 09:26:47;;;;;;;23.42;15.15;;;;;;;0.60;42.99;96225.66;4997549;28;20441;-58
2021/03/10 09:29:20;;;;;;;24.33;17.63;;;;;;;0.73;42.03;96230.16;5011331;28;20400;-56
2021/03/10 09:31:55;;;;;;;21.80;16.10;;;;;;;0.80;40.99;96225.81;5014572;28;20053;-56
2021/03/10 09:34:28;;;;;;;22.73;14.15;;;;;;;0.87;40.28;96226.69;4988530;28;20046;-56
2021/03/10 09:37:06;;;;;;;18.67;12.82;;;;;;;0.94;39.91;96225.94;5003353;28;20053;-56
2021/03/10 09:39:38;;;;;;;18.08;13.45;;;;;;;0.98;38.92;96221.97;4968768;28;20888;-55
2021/03/10 09:42:16;;;;;;;18.33;12.95;;;;;;;0.98;35.97;96216.78;4994777;28;20057;-55
2021/03/10 09:44:53;;;;;;;20.08;12.60;;;;;;;1.04;36.97;96214.25;5000280;28;20056;-56
2021/03/10 09:47:48;;;;;;;22.90;12.35;;;;;;;1.08;36.65;96212.06;5015902;28;20437;-56
2021/03/10 09:50:45;;;;;;;23.77;14.30;;;;;;;1.03;35.47;96217.03;4979592;28;20044;-55
2021/03/10 09:53:20;;;;;;;18.88;12.48;;;;;;;1.09;36.27;96213.66;5011058;28;20068;-56
2021/03/10 09:56:06;;;;;;;30.58;13.38;;;;;;;1.07;35.59;96215.66;4993695;28;20049;-56
2021/03/10 09:58:56;;;;;;;22.55;13.18;;;;;;;1.08;35.73;96206.88;5020138;28;20048;-58
2021/03/10 10:01:30;;;;;;;22.77;15.02;;;;;;;1.16;35.95;96206.75;5023652;28;20081;-55
2021/03/10 10:04:10;;;;;;;21.90;14.02;;;;;;;1.26;35.37;96203.00;4997770;28;20042;-56
2021/03/10 10:06:52;;;;;;;17.65;12.38;;;;;;;1.23;34.49;96212.78;5023047;28;20049;-56
2021/03/10 10:09:22;;;;;;;25.73;13.77;;;;;;;1.21;35.41;96199.19;5030195;28;20045;-56
2021/03/10 10:11:49;;;;;;;17.95;13.68;;;;;;;1.25;34.92;96214.41;5027334;28;20457;-56
2021/03/10 10:14:23;;;;;;;15.88;12.32;;;;;;;1.33;34.94;96203.84;5029085;28;20041;-56
2021/03/10 10:16:50;;;;;;;18.60;12.25;;;;;;;1.38;34.52;96206.69;4978223;28;20061;-56
2021/03/10 10:19:24;;;;;;;18.67;14.40;;;;;;;1.45;35.42;96202.31;4995050;28;20054;-56
2021/03/10 10:21:52;;;;;;;19.73;12.55;;;;;;;1.58;34.39;96209.41;5001498;28;20049;-57
2021/03/10 10:24:20;;;;;;;18.73;14.50;;;;;;;1.65;34.34;96202.44;5012344;28;20516;-56
2021/03/10 10:26:49;;;;;;;17.48;14.20;;;;;;;1.70;33.68;96209.69;5013144;28;20056;-56
2021/03/10 10:29:22;;;;;;;16.88;12.13;;;;;;;1.71;33.84;96213.88;5012202;28;20076;-58
2021/03/10 10:31:51;;;;;;;22.90;13.00;;;;;;;1.70;33.04;96204.47;5010598;28;20508;-56
2021/03/10 10:34:23;;;;;;;17.33;12.82;;;;;;;1.75;33.75;96199.50;4998399;28;20050;-56
2021/03/10 10:36:50;;;;;;;16.48;11.88;;;;;;;1.81;33.79;96205.75;4997260;28;20060;-58
2021/03/10 10:39:40;;;;;;;15.75;12.63;;;;;;;1.92;34.04;96206.97;5015316;28;20068;-56
2021/03/10 10:42:10;;;;;;;21.27;13.45;;;;;;;1.99;33.86;96213.03;4992527;28;20080;-57
2021/03/10 10:44:38;;;;;;;18.90;12.57;;;;;;;2.00;33.47;96206.81;5004526;28;20604;-56
2021/03/10 10:47:06;;;;;;;21.80;13.75;;;;;;;2.02;33.26;96212.66;4995515;28;20052;-56
2021/03/10 10:49:55;;;;;;;23.17;13.50;;;;;;;2.07;33.20;96206.84;5015426;28;20053;-57
2021/03/10 10:52:24;;;;;;;20.88;13.98;;;;;;;2.07;33.52;96205.03;5000757;28;20060;-57
2021/03/10 10:54:51;;;;;;;19.02;13.38;;;;;;;2.01;33.27;96211.03;4998490;28;20041;-56
2021/03/10 10:57:20;;;;;;;21.85;14.57;;;;;;;2.07;33.74;96204.25;4990403;28;20425;-57
2021/03/10 10:59:54;;;;;;;16.83;12.18;;;;;;;1.99;32.92;96197.41;5014183;28;20045;-56
2021/03/10 11:02:24;;;;;;;23.05;12.65;;;;;;;2.11;33.38;96197.66;5014285;28;20052;-56
2021/03/10 11:04:59;;;;;;;20.10;11.93;;;;;;;2.20;33.35;96187.88;4976216;28;20471;-55
2021/03/10 11:07:27;;;;;;;14.77;11.15;;;;;;;2.07;32.46;96193.84;5005807;28;20056;-57
2021/03/10 11:10:01;;;;;;;17.02;10.43;;;;;;;2.07;32.78;96189.44;4989831;28;20048;-56
2021/03/10 11:12:30;;;;;;;18.17;12.75;;;;;;;2.13;32.90;96182.63;4989740;28;20493;-56
2021/03/10 11:15:03;;;;;;;20.95;13.10;;;;;;;2.25;33.92;96186.28;4996791;28;20045;-56
2021/03/10 11:17:39;;;;;;;20.92;12.57;;;;;;;2.35;33.29;96175.50;5000488;28;20049;-57
2021/03/10 11:20:11;;;;;;;18.23;13.18;;;;;;;2.41;33.60;96174.69;5008795;28;20736;-56
2021/03/10 11:22:38;;;;;;;14.07;11.57;;;;;;;2.48;33.30;96173.94;5012509;28;20060;-56
2021/03/10 11:25:09;;;;;;;17.85;13.82;;;;;;;2.56;33.85;96174.56;5022763;28;20506;-56
2021/03/10 11:27:37;;;;;;;16.17;11.90;;;;;;;2.59;33.03;96157.72;5013341;28;20068;-58
2021/03/10 11:30:09;;;;;;;16.77;12.25;;;;;;;2.63;32.85;96153.72;5011661;28;20309;-56
2021/03/10 11:32:41;;;;;;;18.70;13.00;;;;;;;2.67;32.69;96165.31;5027908;28;20045;-56
2021/03/10 11:35:11;;;;;;;14.38;10.98;;;;;;;2.67;32.74;96172.34;4995454;28;20155;-56
2021/03/10 11:37:38;;;;;;;15.38;12.43;;;;;;;-146.28;100.00;62448.88;5010424;28;20159;-58
2021/03/10 11:40:08;;;;;;;16.48;12.23;;;;;;;2.71;100.00;62448.88;5017208;28;20052;-59